Time;durP1;ratioP1;P1;durP2;ratioP2;P2;SDS_P1;SDS_P2;PMS_P1;PMS_P2;Temp;Humidity;BMP_temperature;BMP_pressure;BME280_temperature;BME280_humidity;BME280_pressure;Samples;Min_cycle;Max_cycle;Signal;HPM_P1;HPM_P2
2021/12/22 00:00:20;;;;;;;56.28;23.65;;;-2.60;99.90;;;;;;4765336;29;20057;-87
2021/12/22 00:02:46;;;;;;;54.95;24.08;;;-2.50;99.90;;;;;;4783193;29;20038;-87
2021/12/22 00:05:25;;;;;;;47.55;20.77;;;-2.50;99.90;;;;;;4778047;29;20518;-87
2021/12/22 00:07:51;;;;;;;53.47;23.50;;;-2.50;99.90;;;;;;4778480;29;20395;-87
2021/12/22 00:10:19;;;;;;;56.03;24.02;;;-2.60;99.90;;;;;;4777643;29;20070;-87
2021/12/22 00:12:46;;;;;;;62.70;24.67;;;-2.60;99.90;;;;;;4778419;29;20103;-86
2021/12/22 00:15:12;;;;;;;57.83;25.98;;;-2.50;99.90;;;;;;4780425;29;20035;-86
2021/12/22 00:17:38;;;;;;;62.75;25.60;;;-2.60;99.90;;;;;;4779665;29;20093;-87
2021/12/22 00:20:06;;;;;;;61.33;25.17;;;-2.60;99.90;;;;;;4759168;29;20073;-86
2021/12/22 00:45:55;;;;;;;51.42;22.60;;;-2.70;99.90;;;;;;4811862;29;20050;-87
2021/12/22 00:48:21;;;;;;;47.58;21.63;;;-2.80;99.90;;;;;;4775386;29;20049;-87
2021/12/22 00:50:47;;;;;;;56.50;23.17;;;-2.80;99.90;;;;;;4783987;29;20042;-87
2021/12/22 00:53:13;;;;;;;53.45;22.63;;;-2.80;99.90;;;;;;4770687;29;20155;-86
2021/12/22 00:55:39;;;;;;;53.33;22.55;;;-2.80;99.90;;;;;;4764329;29;20137;-86
2021/12/22 00:58:04;;;;;;;48.10;22.75;;;-2.80;99.90;;;;;;4762495;29;20051;-86
2021/12/22 01:00:31;;;;;;;56.08;23.38;;;-2.80;99.90;;;;;;4764504;29;20054;-87
2021/12/22 01:02:57;;;;;;;55.55;23.33;;;-2.70;99.90;;;;;;4749204;29;20085;-86
2021/12/22 01:05:24;;;;;;;59.80;23.58;;;-2.70;99.90;;;;;;4762407;29;20059;-86
2021/12/22 01:07:51;;;;;;;56.72;23.83;;;-2.70;99.90;;;;;;4778412;29;20091;-86
2021/12/22 01:10:19;;;;;;;58.15;23.90;;;-2.70;99.90;;;;;;4788970;29;20055;-85
2021/12/22 01:12:45;;;;;;;54.72;23.23;;;-2.70;99.90;;;;;;4794231;29;20574;-86
2021/12/22 01:15:12;;;;;;;52.90;22.75;;;-2.80;99.90;;;;;;4765531;29;20137;-86
2021/12/22 01:17:44;;;;;;;54.55;21.75;;;-2.70;99.90;;;;;;4767333;29;20464;-86
2021/12/22 01:20:22;;;;;;;50.50;22.13;;;-2.70;99.90;;;;;;4760417;29;20485;-86
2021/12/22 01:22:49;;;;;;;51.78;22.10;;;-2.80;99.90;;;;;;4790040;29;20137;-86
2021/12/22 01:25:19;;;;;;;43.00;20.52;;;-2.80;99.90;;;;;;4751343;29;20445;-86
2021/12/22 01:27:45;;;;;;;51.75;21.67;;;-2.70;99.90;;;;;;4777894;29;20533;-86
2021/12/22 01:30:32;;;;;;;47.38;21.27;;;-2.80;99.90;;;;;;4779708;29;20034;-86
2021/12/22 01:33:01;;;;;;;52.40;22.13;;;-2.90;99.90;;;;;;4765624;29;20498;-86
2021/12/22 01:35:32;;;;;;;46.55;20.90;;;-2.90;99.90;;;;;;4775919;29;20043;-86
2021/12/22 01:37:58;;;;;;;49.58;22.70;;;-2.80;99.90;;;;;;4777749;29;20057;-86
2021/12/22 01:40:24;;;;;;;55.22;23.48;;;-2.90;99.90;;;;;;4780728;29;20096;-86
2021/12/22 01:42:54;;;;;;;48.35;21.73;;;-2.90;99.90;;;;;;4763773;29;20510;-86
2021/12/22 01:45:36;;;;;;;42.47;21.20;;;-2.90;99.90;;;;;;4762711;29;20119;-86
2021/12/22 01:50:51;;;;;;;45.53;19.70;;;-3.00;99.90;;;;;;4789731;29;20042;-86
2021/12/22 01:53:22;;;;;;;43.30;19.80;;;-3.00;99.90;;;;;;4785041;29;20475;-86
2021/12/22 01:56:18;;;;;;;42.05;20.08;;;-3.00;99.90;;;;;;4787902;29;20499;-86
2021/12/22 01:58:47;;;;;;;39.22;18.80;;;-3.10;99.90;;;;;;4778645;29;20526;-86
2021/12/22 02:01:15;;;;;;;36.58;18.70;;;-3.10;99.90;;;;;;4778080;29;20414;-86
2021/12/22 02:03:45;;;;;;;37.50;17.73;;;-3.10;99.90;;;;;;4779085;29;20513;-86
2021/12/22 02:06:12;;;;;;;44.80;19.63;;;-3.10;99.90;;;;;;4764384;29;20049;-86
2021/12/22 02:08:39;;;;;;;35.65;17.50;;;-3.20;99.90;;;;;;4777273;29;20047;-88
2021/12/22 02:11:07;;;;;;;40.72;18.98;;;-3.20;99.90;;;;;;4784118;29;20384;-86
2021/12/22 02:13:40;;;;;;;39.03;17.90;;;-3.30;99.90;;;;;;4765272;29;20039;-86
2021/12/22 02:16:12;;;;;;;37.35;18.98;;;-3.30;99.90;;;;;;4759364;29;20142;-86
2021/12/22 02:18:45;;;;;;;34.15;17.85;;;-3.30;99.90;;;;;;4752206;29;20480;-85
2021/12/22 02:21:12;;;;;;;40.47;19.65;;;-3.40;99.90;;;;;;4780428;29;20457;-86
2021/12/22 02:23:38;;;;;;;43.50;19.20;;;-3.40;99.90;;;;;;4774148;29;20255;-86
2021/12/22 02:26:11;;;;;;;44.88;19.67;;;-3.40;99.90;;;;;;4761763;29;20086;-86
2021/12/22 02:28:41;;;;;;;48.88;20.27;;;-3.30;99.90;;;;;;4765342;29;20625;-86
2021/12/22 02:31:13;;;;;;;40.72;18.95;;;-3.40;99.90;;;;;;4767363;29;20043;-86
2021/12/22 02:33:41;;;;;;;36.38;17.58;;;-3.40;99.90;;;;;;4779019;29;20042;-86
2021/12/22 02:36:19;;;;;;;36.10;16.85;;;-3.40;99.90;;;;;;4759450;29;20130;-86
2021/12/22 02:38:54;;;;;;;37.33;17.55;;;-3.50;99.90;;;;;;4764818;29;20075;-85
2021/12/22 02:41:23;;;;;;;44.38;18.42;;;-3.50;99.90;;;;;;4782277;29;20054;-87
2021/12/22 02:43:52;;;;;;;39.83;17.70;;;-3.50;99.90;;;;;;4775915;29;20047;-86
2021/12/22 02:46:22;;;;;;;42.50;18.92;;;-3.60;99.90;;;;;;4751136;29;20043;-87
2021/12/22 02:48:48;;;;;;;41.55;18.42;;;-3.60;99.90;;;;;;4780457;29;20049;-86
2021/12/22 02:51:15;;;;;;;38.42;18.58;;;-3.60;99.90;;;;;;4765145;29;20070;-86
2021/12/22 02:53:51;;;;;;;35.47;16.63;;;-3.60;99.90;;;;;;4749455;29;20125;-86
2021/12/22 03:03:59;;;;;;;31.27;15.25;;;-3.70;99.90;;;;;;4792516;29;19920;-86
2021/12/22 03:06:33;;;;;;;33.55;16.83;;;-3.70;99.90;;;;;;4766808;29;20120;-87
2021/12/22 03:09:00;;;;;;;34.25;17.58;;;-3.70;99.90;;;;;;4782917;29;20038;-86
2021/12/22 03:11:26;;;;;;;35.47;16.23;;;-3.60;99.90;;;;;;4763384;29;20047;-86
2021/12/22 03:13:52;;;;;;;33.70;16.00;;;-3.80;99.90;;;;;;4751666;29;20410;-86
2021/12/22 03:16:19;;;;;;;32.97;15.77;;;-3.80;99.90;;;;;;4762962;29;20043;-86
2021/12/22 03:18:45;;;;;;;33.85;16.02;;;-3.80;99.90;;;;;;4766904;29;20050;-86
2021/12/22 03:21:20;;;;;;;35.80;17.83;;;-3.80;99.90;;;;;;4784640;29;20053;-86
2021/12/22 03:23:48;;;;;;;33.08;16.40;;;-3.90;99.90;;;;;;4797933;29;20066;-86
2021/12/22 03:26:16;;;;;;;31.70;16.50;;;-3.90;99.90;;;;;;4783022;29;20459;-86
2021/12/22 03:28:43;;;;;;;40.60;16.70;;;-3.90;99.90;;;;;;4750660;29;20065;-86
2021/12/22 03:31:09;;;;;;;32.97;15.95;;;-3.90;99.90;;;;;;4762791;29;20323;-86
2021/12/22 03:33:34;;;;;;;42.00;16.60;;;-4.00;99.90;;;;;;4762011;29;20058;-86
2021/12/22 03:36:00;;;;;;;31.63;15.77;;;-4.00;99.90;;;;;;4761411;29;20074;-86
2021/12/22 03:38:26;;;;;;;29.98;15.65;;;-4.00;99.90;;;;;;4761856;29;20502;-86
2021/12/22 03:40:52;;;;;;;32.13;15.35;;;-4.10;99.90;;;;;;4750530;29;20051;-86
2021/12/22 03:43:18;;;;;;;33.30;14.73;;;-4.10;99.90;;;;;;4767427;29;20047;-86
2021/12/22 03:45:44;;;;;;;29.67;15.25;;;-4.10;99.90;;;;;;4750026;29;20557;-86
2021/12/22 03:48:10;;;;;;;30.23;14.95;;;-4.20;99.90;;;;;;4758881;29;20043;-86
2021/12/22 03:50:35;;;;;;;35.05;15.35;;;-4.20;99.90;;;;;;4762550;29;20039;-86
2021/12/22 03:53:01;;;;;;;39.38;17.55;;;-4.20;99.90;;;;;;4761767;29;20043;-85
2021/12/22 03:55:27;;;;;;;34.55;17.20;;;-4.20;99.90;;;;;;4749613;29;20044;-85
2021/12/22 03:57:53;;;;;;;34.65;16.92;;;-4.20;99.90;;;;;;4748417;29;20122;-85
2021/12/22 04:00:19;;;;;;;38.10;16.88;;;-4.20;99.90;;;;;;4758872;29;20051;-86
2021/12/22 04:02:44;;;;;;;33.65;16.00;;;-4.30;99.90;;;;;;4783419;29;20519;-85
2021/12/22 04:05:11;;;;;;;31.08;15.98;;;-4.30;99.90;;;;;;4771014;29;20047;-85
2021/12/22 04:07:37;;;;;;;33.35;16.10;;;-4.30;99.90;;;;;;4745983;29;20035;-85
2021/12/22 04:10:19;;;;;;;36.40;17.10;;;-4.40;99.90;;;;;;4760961;29;20046;-85
2021/12/22 04:12:46;;;;;;;36.03;16.65;;;-4.30;99.90;;;;;;4766908;29;20143;-86
2021/12/22 04:15:12;;;;;;;37.00;16.75;;;-4.30;99.90;;;;;;4755411;29;20050;-86
2021/12/22 04:17:37;;;;;;;37.67;16.88;;;-4.40;99.90;;;;;;4764377;29;20043;-85
2021/12/22 04:20:03;;;;;;;36.17;16.45;;;-4.40;99.90;;;;;;4750300;29;20122;-85
2021/12/22 04:22:29;;;;;;;38.08;16.90;;;-4.40;99.90;;;;;;4762497;29;20518;-86
2021/12/22 04:24:55;;;;;;;34.83;16.80;;;-4.40;99.90;;;;;;4766483;29;20039;-86
2021/12/22 04:27:21;;;;;;;34.63;16.88;;;-4.40;99.90;;;;;;4762923;29;20121;-84
2021/12/22 04:29:47;;;;;;;37.97;16.73;;;-4.40;99.90;;;;;;4775559;29;20160;-85
2021/12/22 04:32:12;;;;;;;37.30;16.92;;;-4.50;99.90;;;;;;4756583;29;20122;-86
2021/12/22 04:34:38;;;;;;;36.05;17.80;;;-4.40;99.90;;;;;;4777298;29;20090;-85
2021/12/22 04:37:04;;;;;;;39.45;17.63;;;-4.40;99.90;;;;;;4762846;29;20115;-86
2021/12/22 04:39:32;;;;;;;31.13;17.10;;;-4.40;99.90;;;;;;4762061;29;20039;-85
2021/12/22 04:41:59;;;;;;;37.17;16.95;;;-4.40;99.90;;;;;;4776234;29;20054;-85
2021/12/22 04:44:25;;;;;;;34.42;16.88;;;-4.40;99.90;;;;;;4775117;29;20046;-85
2021/12/22 04:46:51;;;;;;;34.83;16.30;;;-4.40;99.90;;;;;;4759261;29;20099;-85
2021/12/22 04:49:17;;;;;;;34.33;17.33;;;-4.50;99.90;;;;;;4757534;29;20043;-86
2021/12/22 04:51:49;;;;;;;33.67;16.92;;;-4.40;99.90;;;;;;4762285;29;20054;-86
2021/12/22 04:54:31;;;;;;;34.75;17.60;;;-4.50;99.90;;;;;;4751501;29;20082;-85
2021/12/22 04:56:57;;;;;;;33.05;17.02;;;-4.50;99.90;;;;;;4776427;29;20035;-86
2021/12/22 04:59:24;;;;;;;40.05;18.52;;;-4.50;99.90;;;;;;4775105;29;20483;-86
2021/12/22 05:01:51;;;;;;;39.42;17.42;;;-4.50;99.90;;;;;;4774882;29;20066;-86
2021/12/22 05:04:17;;;;;;;34.03;17.00;;;-4.50;99.90;;;;;;4748608;29;20427;-86
2021/12/22 05:06:43;;;;;;;41.42;17.38;;;-4.50;99.90;;;;;;4775414;29;20127;-86
2021/12/22 05:09:09;;;;;;;37.20;16.98;;;-4.40;99.90;;;;;;4762511;29;20598;-85
2021/12/22 05:11:35;;;;;;;35.38;17.42;;;-4.50;99.90;;;;;;4760287;29;20039;-86
2021/12/22 05:14:03;;;;;;;38.58;17.88;;;-4.50;99.90;;;;;;4775136;29;20250;-86
2021/12/22 05:16:30;;;;;;;32.00;16.55;;;-4.60;99.90;;;;;;4773807;29;20138;-86
2021/12/22 05:21:26;;;;;;;37.83;17.02;;;-4.60;99.90;;;;;;4775676;29;20046;-85
2021/12/22 05:23:54;;;;;;;36.20;16.45;;;-4.60;99.90;;;;;;4749417;29;20046;-85
2021/12/22 05:26:21;;;;;;;37.45;17.90;;;-4.60;99.90;;;;;;4789534;29;20043;-86
2021/12/22 05:28:47;;;;;;;37.38;17.60;;;-4.60;99.90;;;;;;4781027;29;20043;-86
2021/12/22 05:31:13;;;;;;;32.67;17.13;;;-4.70;99.90;;;;;;4774079;29;20043;-85
2021/12/22 05:33:39;;;;;;;35.67;17.10;;;-4.60;99.90;;;;;;4788754;29;20051;-86
2021/12/22 05:36:06;;;;;;;40.28;18.08;;;-4.60;99.90;;;;;;4795039;29;20076;-85
2021/12/22 05:38:31;;;;;;;36.33;17.38;;;-4.60;99.90;;;;;;4792811;29;20053;-86
2021/12/22 05:40:57;;;;;;;40.33;18.33;;;-4.60;99.90;;;;;;4783593;29;20051;-86
2021/12/22 05:43:23;;;;;;;38.33;17.85;;;-4.60;99.90;;;;;;4763358;29;20080;-86
2021/12/22 05:45:49;;;;;;;41.13;17.33;;;-4.70;99.90;;;;;;4776892;29;20133;-86
2021/12/22 05:48:15;;;;;;;39.00;18.17;;;-4.70;99.90;;;;;;4759248;29;20063;-86
2021/12/22 05:50:46;;;;;;;34.72;17.33;;;-4.70;99.90;;;;;;4775634;29;20040;-86
2021/12/22 05:53:12;;;;;;;35.75;16.88;;;-4.60;99.90;;;;;;4762538;29;20039;-86
2021/12/22 05:55:38;;;;;;;38.33;18.10;;;-4.80;99.90;;;;;;4777699;29;20051;-86
2021/12/22 05:58:04;;;;;;;39.53;17.65;;;-4.70;99.90;;;;;;4762503;29;20057;-86
2021/12/22 06:00:29;;;;;;;44.53;18.58;;;-4.70;99.90;;;;;;4749384;29;20498;-86
2021/12/22 06:02:55;;;;;;;39.97;17.63;;;-4.70;99.90;;;;;;4777872;29;20130;-86
2021/12/22 06:05:21;;;;;;;38.17;18.38;;;-4.70;99.90;;;;;;4778646;29;20137;-86
2021/12/22 06:07:47;;;;;;;38.65;18.33;;;-4.70;99.90;;;;;;4761616;29;20116;-86
2021/12/22 06:10:13;;;;;;;44.00;19.15;;;-4.60;99.90;;;;;;4764103;29;20050;-86
2021/12/22 06:12:38;;;;;;;42.70;17.98;;;-4.70;99.90;;;;;;4761919;29;20039;-86
2021/12/22 06:15:11;;;;;;;41.85;17.60;;;-4.60;99.90;;;;;;4775726;29;20069;-86
2021/12/22 06:17:37;;;;;;;;;;;-4.60;99.90;;;;;;4759657;29;21715;-86
2021/12/22 06:20:03;;;;;;;38.17;17.17;;;-4.60;99.90;;;;;;4772898;29;19921;-86
2021/12/22 06:22:31;;;;;;;32.78;16.65;;;-4.60;99.90;;;;;;4777646;29;20256;-87
2021/12/22 06:24:57;;;;;;;38.13;17.40;;;-4.70;99.90;;;;;;4776978;29;20542;-87
2021/12/22 06:27:23;;;;;;;39.70;18.20;;;-4.70;99.90;;;;;;4781334;29;20050;-87
2021/12/22 06:29:49;;;;;;;39.05;18.52;;;-4.70;99.90;;;;;;4774790;29;20043;-87
2021/12/22 06:32:15;;;;;;;43.13;17.88;;;-4.60;99.90;;;;;;4778142;29;20104;-88
2021/12/22 06:34:41;;;;;;;46.15;19.83;;;-4.60;99.90;;;;;;4762919;29;20495;-87
2021/12/22 06:37:07;;;;;;;39.70;17.38;;;-4.60;99.90;;;;;;4759394;29;20487;-87
2021/12/22 06:39:33;;;;;;;38.58;17.73;;;-4.60;99.90;;;;;;4781230;29;20054;-88
2021/12/22 06:42:00;;;;;;;44.15;19.65;;;-4.60;99.90;;;;;;4762882;29;20127;-87
2021/12/22 06:44:25;;;;;;;43.00;19.25;;;-4.70;99.90;;;;;;4774767;29;20047;-87
2021/12/22 06:46:52;;;;;;;40.15;18.35;;;-4.60;99.90;;;;;;4761962;29;20101;-87
2021/12/22 06:49:18;;;;;;;47.05;21.77;;;-4.60;99.90;;;;;;4775751;29;20047;-87
2021/12/22 06:51:44;;;;;;;46.53;21.10;;;-4.60;99.90;;;;;;4758844;29;20047;-87
2021/12/22 06:54:10;;;;;;;41.95;19.35;;;-4.60;99.90;;;;;;4761441;29;20461;-86
2021/12/22 06:56:38;;;;;;;41.40;20.35;;;-4.50;99.90;;;;;;4763939;29;20050;-87
2021/12/22 06:59:04;;;;;;;46.22;20.35;;;-4.60;99.90;;;;;;4761030;29;20047;-87
2021/12/22 07:01:33;;;;;;;46.10;19.45;;;-4.50;99.90;;;;;;4746607;29;20051;-87
2021/12/22 07:03:59;;;;;;;41.58;17.85;;;-4.50;99.90;;;;;;4775981;29;20046;-87
2021/12/22 07:06:25;;;;;;;35.50;16.55;;;-4.50;99.90;;;;;;4776307;29;20047;-87
2021/12/22 07:08:50;;;;;;;35.58;17.98;;;-4.50;99.90;;;;;;4763913;29;20042;-87
2021/12/22 07:11:17;;;;;;;39.88;19.05;;;-4.50;99.90;;;;;;4751236;29;20106;-87
2021/12/22 07:13:43;;;;;;;45.47;19.02;;;-4.50;99.90;;;;;;4765136;29;20039;-87
2021/12/22 07:16:09;;;;;;;41.40;17.85;;;-4.50;99.90;;;;;;4760891;29;20043;-87
2021/12/22 07:18:35;;;;;;;37.90;17.25;;;-4.50;99.90;;;;;;4749212;29;20064;-86
2021/12/22 07:21:03;;;;;;;38.92;18.27;;;-4.30;99.90;;;;;;4776624;29;20046;-87
2021/12/22 07:23:31;;;;;;;41.33;18.50;;;-4.40;99.90;;;;;;4774327;29;20058;-87
2021/12/22 07:25:57;;;;;;;41.05;16.95;;;-4.50;99.90;;;;;;4754663;29;20304;-87
2021/12/22 07:28:23;;;;;;;41.08;17.98;;;-4.50;99.90;;;;;;4753219;29;20047;-86
2021/12/22 07:30:49;;;;;;;42.28;18.10;;;-4.40;99.90;;;;;;4778349;29;20339;-87
2021/12/22 07:33:15;;;;;;;41.90;18.45;;;-4.50;99.90;;;;;;4790968;29;20035;-87
2021/12/22 07:35:58;;;;;;;40.45;18.95;;;-4.50;99.90;;;;;;4791357;29;20084;-87
2021/12/22 07:38:35;;;;;;;35.47;17.02;;;-4.50;99.90;;;;;;4787249;29;20118;-87
2021/12/22 07:41:03;;;;;;;38.90;17.63;;;-4.50;99.90;;;;;;4772240;29;20408;-88
2021/12/22 07:43:30;;;;;;;33.05;15.80;;;-4.50;99.90;;;;;;4778467;29;20083;-87
2021/12/22 07:45:57;;;;;;;38.80;16.48;;;-4.40;99.90;;;;;;4756130;29;20304;-88
2021/12/22 07:48:23;;;;;;;39.83;17.40;;;-4.50;99.90;;;;;;4790175;29;20073;-86
2021/12/22 07:50:49;;;;;;;37.22;16.23;;;-4.50;99.90;;;;;;4782077;29;20039;-87
2021/12/22 07:53:16;;;;;;;36.67;16.63;;;-4.50;99.90;;;;;;4796082;29;20072;-86
2021/12/22 07:55:42;;;;;;;40.38;18.05;;;-4.50;99.90;;;;;;4753301;29;20395;-88
2021/12/22 07:58:08;;;;;;;37.83;17.20;;;-4.50;99.90;;;;;;4762045;29;20062;-87
2021/12/22 08:00:35;;;;;;;41.72;17.90;;;-4.40;99.90;;;;;;4761782;29;20231;-88
2021/12/22 08:03:00;;;;;;;33.55;16.10;;;-4.40;99.90;;;;;;4778347;29;20125;-87
2021/12/22 08:05:26;;;;;;;37.95;17.25;;;-4.40;99.90;;;;;;4777198;29;20133;-87
2021/12/22 08:07:56;;;;;;;42.08;17.08;;;-4.40;99.90;;;;;;4766070;29;20561;-88
2021/12/22 08:10:22;;;;;;;40.72;17.17;;;-4.40;99.90;;;;;;4762429;30;20100;-87
2021/12/22 08:12:48;;;;;;;38.97;17.05;;;-4.30;99.90;;;;;;4759732;29;20046;-86
2021/12/22 08:15:15;;;;;;;40.40;17.98;;;-4.40;99.90;;;;;;4780126;29;20373;-87
2021/12/22 08:17:42;;;;;;;38.40;17.08;;;-4.30;99.90;;;;;;4756902;29;20065;-86
2021/12/22 08:20:08;;;;;;;40.08;18.70;;;-4.30;99.90;;;;;;4759637;29;20043;-86
2021/12/22 08:22:34;;;;;;;38.40;17.23;;;-4.30;99.90;;;;;;4741647;29;20039;-89
2021/12/22 08:25:04;;;;;;;38.38;18.40;;;-4.20;99.90;;;;;;4765745;29;20046;-88
2021/12/22 08:30:38;;;;;;;37.22;18.10;;;-4.10;99.90;;;;;;4797769;29;20491;-84
2021/12/22 08:33:09;;;;;;;37.72;17.52;;;-4.10;99.90;;;;;;4764661;29;20366;-86
2021/12/22 08:38:50;;;;;;;39.50;17.13;;;-4.10;99.90;;;;;;4760367;29;20046;-85
2021/12/22 08:41:09;;;;;;;40.63;17.52;;;-4.00;99.90;;;;;;4794980;29;20066;-87
2021/12/22 08:43:35;;;;;;;44.03;17.67;;;-3.90;99.90;;;;;;4776267;29;20553;-86
2021/12/22 08:46:00;;;;;;;38.33;18.10;;;-3.90;99.90;;;;;;4766329;29;20043;-87
2021/12/22 08:48:26;;;;;;;45.38;18.17;;;-3.80;99.90;;;;;;4747120;29;20055;-86
2021/12/22 08:50:52;;;;;;;37.78;18.40;;;-3.80;99.90;;;;;;4770099;29;20039;-87
2021/12/22 08:53:18;;;;;;;42.17;18.75;;;-3.70;99.90;;;;;;4751840;29;20073;-87
2021/12/22 08:55:43;;;;;;;40.20;18.15;;;-3.70;99.90;;;;;;4759657;29;20079;-87
2021/12/22 08:58:09;;;;;;;48.80;19.10;;;-3.60;99.90;;;;;;4748338;29;20133;-86
2021/12/22 09:00:38;;;;;;;50.08;20.50;;;-3.50;99.90;;;;;;4762779;29;20154;-86
2021/12/22 09:03:04;;;;;;;38.17;17.90;;;-3.50;99.90;;;;;;4751264;29;20143;-87
2021/12/22 09:05:30;;;;;;;44.45;19.48;;;-3.40;99.90;;;;;;4777431;29;20051;-85
2021/12/22 09:07:55;;;;;;;46.40;20.25;;;-3.40;99.90;;;;;;4791021;29;20059;-86
2021/12/22 09:10:22;;;;;;;48.33;20.75;;;-3.30;99.90;;;;;;4762679;29;20039;-86
2021/12/22 09:12:47;;;;;;;55.13;21.45;;;-3.30;99.90;;;;;;4775091;29;20046;-86
2021/12/22 09:15:17;;;;;;;45.80;20.58;;;-3.20;99.90;;;;;;4750938;29;20095;-87
2021/12/22 09:17:43;;;;;;;49.03;21.58;;;-3.10;99.90;;;;;;4776337;29;20047;-86
2021/12/22 09:20:10;;;;;;;48.17;20.27;;;-3.00;99.90;;;;;;4746681;29;20050;-87
2021/12/22 09:22:36;;;;;;;43.90;18.35;;;-3.00;99.90;;;;;;4763721;29;20556;-86
2021/12/22 09:25:03;;;;;;;44.15;18.23;;;-3.00;99.90;;;;;;4780620;29;20119;-87
2021/12/22 09:27:29;;;;;;;42.85;17.85;;;-3.00;99.90;;;;;;4777115;29;20055;-86
2021/12/22 09:29:55;;;;;;;39.70;17.83;;;-2.90;99.90;;;;;;4776009;29;20506;-86
2021/12/22 09:32:21;;;;;;;43.42;19.27;;;-2.90;99.90;;;;;;4785849;29;20118;-86
2021/12/22 09:34:49;;;;;;;47.47;21.08;;;-2.90;99.90;;;;;;4783201;29;20743;-89
2021/12/22 09:37:16;;;;;;;43.00;19.05;;;-2.90;99.90;;;;;;4778465;29;20134;-87
2021/12/22 09:39:42;;;;;;;44.35;20.02;;;-2.70;99.90;;;;;;4789076;29;20129;-88
2021/12/22 09:42:09;;;;;;;39.35;19.02;;;-2.80;99.90;;;;;;4777671;29;20134;-88
2021/12/22 09:44:43;;;;;;;47.78;20.38;;;-2.70;99.90;;;;;;4778050;29;20058;-86
2021/12/22 09:47:14;;;;;;;43.35;19.75;;;-2.70;99.90;;;;;;4776433;29;20050;-85
2021/12/22 09:52:21;;;;;;;49.53;21.02;;;-2.60;99.90;;;;;;4797671;29;20042;-86
2021/12/22 09:54:51;;;;;;;48.03;20.30;;;-2.50;99.90;;;;;;4768938;29;20038;-86
2021/12/22 09:57:18;;;;;;;44.75;20.20;;;-2.40;99.90;;;;;;4787278;29;20042;-85
2021/12/22 09:59:49;;;;;;;44.05;21.05;;;-2.40;99.90;;;;;;4764941;29;20042;-86
2021/12/22 10:02:18;;;;;;;45.90;21.25;;;-2.30;99.90;;;;;;4786168;29;20083;-86
2021/12/22 10:04:44;;;;;;;39.90;19.67;;;-2.30;99.90;;;;;;4795521;29;20054;-86
2021/12/22 10:07:17;;;;;;;41.53;19.77;;;-2.20;99.90;;;;;;4781084;29;20419;-86
2021/12/22 10:09:48;;;;;;;39.58;20.17;;;-2.10;99.90;;;;;;4772319;29;20046;-87
2021/12/22 10:12:18;;;;;;;42.47;20.65;;;-2.10;99.90;;;;;;4769667;29;20067;-86
2021/12/22 10:14:58;;;;;;;31.02;16.42;;;-2.00;99.90;;;;;;4776889;29;20065;-87
2021/12/22 10:17:40;;;;;;;35.25;18.02;;;-2.00;99.90;;;;;;4791448;29;20111;-87
2021/12/22 10:20:09;;;;;;;38.35;18.23;;;-1.90;99.90;;;;;;4795871;29;20047;-87
2021/12/22 10:22:40;;;;;;;34.92;17.15;;;-1.90;99.90;;;;;;4776056;29;20467;-87
2021/12/22 10:25:14;;;;;;;36.28;18.42;;;-1.80;99.90;;;;;;4782389;29;20086;-86
2021/12/22 10:27:43;;;;;;;38.92;19.80;;;-1.80;99.90;;;;;;4786634;29;20047;-87
2021/12/22 10:30:24;;;;;;;33.83;16.40;;;-1.70;99.90;;;;;;4799882;29;20035;-86
2021/12/22 10:33:07;;;;;;;32.88;17.63;;;-1.60;99.90;;;;;;4779915;29;20090;-86
2021/12/22 10:35:34;;;;;;;;;;;-1.50;99.90;;;;;;4783818;29;20428;-87
2021/12/22 10:38:01;;;;;;;32.55;16.42;;;-1.50;99.90;;;;;;4808919;29;20028;-85
2021/12/22 10:40:33;;;;;;;32.33;17.38;;;-1.40;99.90;;;;;;4773688;29;20223;-86
2021/12/22 10:43:00;;;;;;;32.95;17.90;;;-1.40;99.90;;;;;;4786920;29;20054;-87
2021/12/22 10:45:28;;;;;;;29.98;15.50;;;-1.30;99.90;;;;;;4770342;29;20047;-85
2021/12/22 10:50:42;;;;;;;32.78;16.90;;;-1.20;99.90;;;;;;4801462;29;20043;-86
2021/12/22 10:53:11;;;;;;;29.65;15.75;;;-1.20;99.90;;;;;;4796415;29;20150;-86
2021/12/22 10:55:38;;;;;;;30.77;15.68;;;-1.10;99.90;;;;;;4797658;29;20046;-87
2021/12/22 10:58:23;;;;;;;27.45;15.23;;;-1.10;99.90;;;;;;4784993;29;20046;-87
2021/12/22 11:01:09;;;;;;;34.13;16.70;;;-1.00;99.90;;;;;;4784703;29;20054;-85
2021/12/22 11:03:50;;;;;;;31.80;16.65;;;-1.00;99.90;;;;;;4796631;29;20043;-86
2021/12/22 11:06:37;;;;;;;31.30;15.98;;;-1.00;99.90;;;;;;4797257;29;20449;-86
2021/12/22 11:09:14;;;;;;;31.90;15.73;;;-0.90;99.90;;;;;;4780061;29;20043;-85
2021/12/22 11:11:55;;;;;;;32.20;15.55;;;-0.90;99.90;;;;;;4783129;29;20407;-84
2021/12/22 11:14:29;;;;;;;30.02;15.63;;;-0.90;99.90;;;;;;4777208;29;20110;-87
2021/12/22 11:17:09;;;;;;;30.45;15.68;;;-0.80;99.90;;;;;;4784775;29;20141;-86
2021/12/22 11:20:05;;;;;;;25.33;13.68;;;-0.80;99.90;;;;;;4792687;29;20495;-87
2021/12/22 11:23:00;;;;;;;30.70;14.57;;;-0.70;99.90;;;;;;4782611;29;20484;-88
2021/12/22 11:25:27;;;;;;;26.40;13.82;;;-0.70;99.90;;;;;;4785793;29;20054;-87
2021/12/22 11:27:55;;;;;;;25.05;14.07;;;-0.60;99.90;;;;;;4782666;29;20049;-87
2021/12/22 11:30:22;;;;;;;29.27;14.73;;;-0.50;99.90;;;;;;4783300;29;20112;-86
2021/12/22 11:32:49;;;;;;;25.00;13.93;;;-0.60;99.90;;;;;;4781497;29;20043;-85
2021/12/22 11:35:16;;;;;;;27.45;13.57;;;-0.50;99.90;;;;;;4767852;29;20043;-84
2021/12/22 11:37:43;;;;;;;31.27;15.05;;;-0.50;99.90;;;;;;4780343;29;20043;-87
2021/12/22 11:40:11;;;;;;;29.40;15.82;;;-0.50;99.90;;;;;;4781737;29;20122;-84
2021/12/22 11:42:39;;;;;;;27.45;12.82;;;-0.40;99.90;;;;;;4769089;29;20546;-85
2021/12/22 11:45:15;;;;;;;28.27;14.05;;;-0.30;99.90;;;;;;4761262;29;20092;-85
2021/12/22 11:47:44;;;;;;;29.23;14.98;;;-0.20;99.90;;;;;;4777373;29;20051;-86
2021/12/22 11:50:18;;;;;;;30.48;14.48;;;-0.20;99.90;;;;;;4786144;29;20066;-85
2021/12/22 11:52:58;;;;;;;26.33;12.75;;;-0.10;99.90;;;;;;4783351;29;20045;-87
2021/12/22 11:55:38;;;;;;;27.92;14.63;;;-0.10;99.90;;;;;;4773645;29;20043;-85
2021/12/22 11:58:39;;;;;;;27.65;13.73;;;-0.10;99.90;;;;;;4779443;29;23070;-85
2021/12/22 12:01:10;;;;;;;31.10;14.57;;;-0.10;99.90;;;;;;4734788;30;20036;-85
2021/12/22 12:03:44;;;;;;;27.40;14.30;;;-0.10;99.90;;;;;;4772861;29;20051;-85
2021/12/22 12:06:21;;;;;;;28.65;14.45;;;-0.10;99.90;;;;;;4775629;29;20043;-86
2021/12/22 12:08:52;;;;;;;26.33;14.63;;;-0.10;99.90;;;;;;4774680;29;20179;-85
2021/12/22 12:11:51;;;;;;;29.40;15.13;;;-0.10;99.90;;;;;;4773629;29;20042;-86
2021/12/22 12:23:27;;;;;;;26.48;13.98;;;0.00;99.90;;;;;;4801221;24;20043;-85
2021/12/22 12:25:54;;;;;;;28.75;13.35;;;0.00;99.90;;;;;;4779485;29;20049;-86
2021/12/22 12:28:22;;;;;;;26.05;14.23;;;0.00;99.90;;;;;;4779724;29;20062;-86
2021/12/22 12:30:53;;;;;;;29.90;13.77;;;0.00;99.90;;;;;;4750502;29;20074;-86
2021/12/22 12:33:24;;;;;;;28.10;14.45;;;0.00;99.90;;;;;;4764660;29;20043;-85
2021/12/22 12:35:51;;;;;;;25.92;14.88;;;0.10;99.90;;;;;;4763694;29;20099;-86
2021/12/22 12:38:22;;;;;;;28.05;15.07;;;0.10;99.90;;;;;;4764447;30;20050;-86
2021/12/22 12:43:51;;;;;;;27.40;14.02;;;0.60;99.90;;;;;;4779129;29;20087;-88
2021/12/22 12:46:20;;;;;;;28.53;13.80;;;0.70;99.90;;;;;;4765951;30;20537;-87
2021/12/22 12:49:05;;;;;;;32.97;14.48;;;0.70;99.90;;;;;;4765462;30;20048;-89
2021/12/22 12:51:34;;;;;;;26.00;13.95;;;0.80;99.90;;;;;;4795282;29;20131;-85
2021/12/22 12:54:06;;;;;;;24.40;14.52;;;0.90;99.90;;;;;;4767624;30;20039;-86
2021/12/22 12:56:42;;;;;;;28.87;14.27;;;0.90;99.90;;;;;;4779871;29;20115;-86
2021/12/22 12:59:09;;;;;;;25.80;14.00;;;1.00;99.90;;;;;;4779374;29;20141;-88
2021/12/22 13:01:47;;;;;;;31.83;14.52;;;1.10;99.90;;;;;;4771316;29;20388;-88
2021/12/22 13:04:29;;;;;;;28.75;13.45;;;1.10;99.90;;;;;;4791136;29;20039;-86
2021/12/22 13:07:05;;;;;;;29.95;14.85;;;1.10;99.90;;;;;;4783124;29;20074;-86
2021/12/22 13:09:38;;;;;;;29.30;14.93;;;1.00;99.90;;;;;;4778879;29;20133;-89
2021/12/22 13:12:15;;;;;;;;;;;0.90;99.90;;;;;;4774165;30;20196;-88
2021/12/22 13:17:31;;;;;;;25.38;14.07;;;0.70;99.90;;;;;;4795035;29;20059;-88
2021/12/22 13:19:57;;;;;;;26.67;14.77;;;0.50;99.90;;;;;;4750844;30;20334;-88
2021/12/22 13:22:29;;;;;;;28.80;13.93;;;0.40;99.90;;;;;;4764682;30;20134;-88
2021/12/22 13:25:18;;;;;;;27.10;13.83;;;0.40;99.90;;;;;;4768213;30;20043;-88
2021/12/22 13:27:55;;;;;;;28.10;14.25;;;0.30;99.90;;;;;;4774301;29;20373;-89
2021/12/22 13:30:24;;;;;;;27.00;14.70;;;0.30;99.90;;;;;;4770480;30;20043;-88
2021/12/22 13:32:59;;;;;;;25.73;14.15;;;0.30;99.90;;;;;;4793298;29;20511;-86
2021/12/22 13:35:44;;;;;;;31.85;15.48;;;0.20;99.90;;;;;;4766192;30;20039;-86
2021/12/22 13:38:23;;;;;;;29.80;15.52;;;0.10;99.90;;;;;;4786203;29;20458;-88
2021/12/22 13:40:54;;;;;;;25.77;15.57;;;0.10;99.90;;;;;;4766028;29;20039;-85